sensor_id;sensor_type;location;lat;lon;timestamp;temperature;humidity
324;DHT22;149;51.094;17.002;2024-01-06T00:01:32;1.80;99.90
324;DHT22;149;51.094;17.002;2024-01-06T00:03:59;1.80;99.90
324;DHT22;149;51.094;17.002;2024-01-06T00:06:26;1.90;99.90
324;DHT22;149;51.094;17.002;2024-01-06T00:08:53;1.80;99.90
324;DHT22;149;51.094;17.002;2024-01-06T00:11:22;1.80;99.90
324;DHT22;149;51.094;17.002;2024-01-06T00:13:49;1.80;99.90
324;DHT22;149;51.094;17.002;2024-01-06T00:16:17;1.80;99.90
324;DHT22;149;51.094;17.002;2024-01-06T00:18:46;1.80;99.90
324;DHT22;149;51.094;17.002;2024-01-06T00:21:14;1.80;99.90
324;DHT22;149;51.094;17.002;2024-01-06T00:23:41;1.80;99.90
324;DHT22;149;51.094;17.002;2024-01-06T00:26:10;1.80;99.90
324;DHT22;149;51.094;17.002;2024-01-06T00:28:41;1.80;99.90
324;DHT22;149;51.094;17.002;2024-01-06T00:31:07;1.80;99.90
324;DHT22;149;51.094;17.002;2024-01-06T00:33:36;1.90;99.90
324;DHT22;149;51.094;17.002;2024-01-06T00:36:03;1.90;99.90
324;DHT22;149;51.094;17.002;2024-01-06T00:38:31;1.90;99.90
324;DHT22;149;51.094;17.002;2024-01-06T00:40:58;1.90;99.90
324;DHT22;149;51.094;17.002;2024-01-06T00:43:25;1.90;99.90
324;DHT22;149;51.094;17.002;2024-01-06T00:45:52;1.90;99.90
324;DHT22;149;51.094;17.002;2024-01-06T00:48:19;1.90;99.90
324;DHT22;149;51.094;17.002;2024-01-06T00:50:47;1.90;99.90
324;DHT22;149;51.094;17.002;2024-01-06T00:53:14;1.90;99.90
324;DHT22;149;51.094;17.002;2024-01-06T00:55:43;1.80;99.90
324;DHT22;149;51.094;17.002;2024-01-06T00:58:09;1.80;99.90
324;DHT22;149;51.094;17.002;2024-01-06T01:00:37;1.90;99.90
324;DHT22;149;51.094;17.002;2024-01-06T01:03:04;1.90;99.90
324;DHT22;149;51.094;17.002;2024-01-06T01:05:31;1.90;99.90
324;DHT22;149;51.094;17.002;2024-01-06T01:07:59;1.90;99.90
324;DHT22;149;51.094;17.002;2024-01-06T01:10:28;1.90;99.90
324;DHT22;149;51.094;17.002;2024-01-06T01:12:55;1.90;99.90
324;DHT22;149;51.094;17.002;2024-01-06T01:15:22;1.90;99.90
324;DHT22;149;51.094;17.002;2024-01-06T01:17:49;1.90;99.90
324;DHT22;149;51.094;17.002;2024-01-06T01:20:18;2.00;99.90
324;DHT22;149;51.094;17.002;2024-01-06T01:22:47;2.00;99.90
324;DHT22;149;51.094;17.002;2024-01-06T01:25:16;2.00;99.90
324;DHT22;149;51.094;17.002;2024-01-06T01:27:43;2.00;99.90
324;DHT22;149;51.094;17.002;2024-01-06T01:30:11;2.00;99.90
324;DHT22;149;51.094;17.002;2024-01-06T01:32:41;2.00;99.90
324;DHT22;149;51.094;17.002;2024-01-06T01:35:10;2.00;99.90
324;DHT22;149;51.094;17.002;2024-01-06T01:37:39;2.10;99.90
324;DHT22;149;51.094;17.002;2024-01-06T01:40:07;2.10;99.90
324;DHT22;149;51.094;17.002;2024-01-06T01:42:34;2.10;99.90
324;DHT22;149;51.094;17.002;2024-01-06T01:45:06;2.10;99.90
324;DHT22;149;51.094;17.002;2024-01-06T01:47:38;2.10;99.90
324;DHT22;149;51.094;17.002;2024-01-06T01:50:10;2.10;99.90
324;DHT22;149;51.094;17.002;2024-01-06T01:52:40;2.10;99.90
324;DHT22;149;51.094;17.002;2024-01-06T01:55:08;2.10;99.90
324;DHT22;149;51.094;17.002;2024-01-06T01:57:38;2.00;99.90
324;DHT22;149;51.094;17.002;2024-01-06T02:00:06;2.00;99.90
324;DHT22;149;51.094;17.002;2024-01-06T02:02:33;2.00;99.90
324;DHT22;149;51.094;17.002;2024-01-06T02:05:01;2.00;99.90
324;DHT22;149;51.094;17.002;2024-01-06T02:07:29;2.00;99.90
324;DHT22;149;51.094;17.002;2024-01-06T02:09:59;2.00;99.90
324;DHT22;149;51.094;17.002;2024-01-06T02:12:26;2.00;99.90
324;DHT22;149;51.094;17.002;2024-01-06T02:14:53;2.00;99.90
324;DHT22;149;51.094;17.002;2024-01-06T02:17:23;1.90;99.90
324;DHT22;149;51.094;17.002;2024-01-06T02:19:52;1.90;99.90
324;DHT22;149;51.094;17.002;2024-01-06T02:22:20;2.00;99.90
324;DHT22;149;51.094;17.002;2024-01-06T02:24:49;1.90;99.90
324;DHT22;149;51.094;17.002;2024-01-06T02:27:16;2.00;99.90
324;DHT22;149;51.094;17.002;2024-01-06T02:29:44;1.90;99.90
324;DHT22;149;51.094;17.002;2024-01-06T02:32:12;1.90;99.90
324;DHT22;149;51.094;17.002;2024-01-06T02:34:39;1.90;99.90
324;DHT22;149;51.094;17.002;2024-01-06T02:37:07;1.90;99.90
324;DHT22;149;51.094;17.002;2024-01-06T02:39:34;1.80;99.90
324;DHT22;149;51.094;17.002;2024-01-06T02:42:01;1.80;99.90
324;DHT22;149;51.094;17.002;2024-01-06T02:44:28;1.80;99.90
324;DHT22;149;51.094;17.002;2024-01-06T02:46:56;1.80;99.90
324;DHT22;149;51.094;17.002;2024-01-06T02:49:23;1.80;99.90
324;DHT22;149;51.094;17.002;2024-01-06T02:51:51;1.80;99.90
324;DHT22;149;51.094;17.002;2024-01-06T02:54:20;1.80;99.90
324;DHT22;149;51.094;17.002;2024-01-06T02:56:48;1.80;99.90
324;DHT22;149;51.094;17.002;2024-01-06T02:59:17;1.70;99.90
324;DHT22;149;51.094;17.002;2024-01-06T03:01:45;1.80;99.90
324;DHT22;149;51.094;17.002;2024-01-06T03:04:18;1.70;99.90
324;DHT22;149;51.094;17.002;2024-01-06T03:06:45;1.70;99.90
324;DHT22;149;51.094;17.002;2024-01-06T03:09:15;1.70;99.90
324;DHT22;149;51.094;17.002;2024-01-06T03:11:44;1.60;99.90
324;DHT22;149;51.094;17.002;2024-01-06T03:14:14;1.60;99.90
324;DHT22;149;51.094;17.002;2024-01-06T03:16:42;1.60;99.90
324;DHT22;149;51.094;17.002;2024-01-06T03:19:10;1.60;99.90
324;DHT22;149;51.094;17.002;2024-01-06T03:21:37;1.60;99.90
324;DHT22;149;51.094;17.002;2024-01-06T03:24:06;1.60;99.90
324;DHT22;149;51.094;17.002;2024-01-06T03:26:34;1.60;99.90
324;DHT22;149;51.094;17.002;2024-01-06T03:29:00;1.60;99.90
324;DHT22;149;51.094;17.002;2024-01-06T03:31:29;1.60;99.90
324;DHT22;149;51.094;17.002;2024-01-06T03:33:56;1.60;99.90
324;DHT22;149;51.094;17.002;2024-01-06T03:36:24;1.50;99.90
324;DHT22;149;51.094;17.002;2024-01-06T03:38:51;1.60;99.90
324;DHT22;149;51.094;17.002;2024-01-06T03:41:18;1.60;99.90
324;DHT22;149;51.094;17.002;2024-01-06T03:43:45;1.60;99.90
324;DHT22;149;51.094;17.002;2024-01-06T03:46:13;1.60;99.90
324;DHT22;149;51.094;17.002;2024-01-06T03:48:40;1.60;99.90
324;DHT22;149;51.094;17.002;2024-01-06T03:51:07;1.60;99.90
324;DHT22;149;51.094;17.002;2024-01-06T03:53:34;1.60;99.90
324;DHT22;149;51.094;17.002;2024-01-06T03:56:03;1.60;99.90
324;DHT22;149;51.094;17.002;2024-01-06T03:58:30;1.70;99.90
324;DHT22;149;51.094;17.002;2024-01-06T04:00:58;1.60;99.90
324;DHT22;149;51.094;17.002;2024-01-06T04:03:25;1.60;99.90
324;DHT22;149;51.094;17.002;2024-01-06T04:05:52;1.60;99.90
324;DHT22;149;51.094;17.002;2024-01-06T04:08:22;1.60;99.90
324;DHT22;149;51.094;17.002;2024-01-06T04:10:49;1.60;99.90
324;DHT22;149;51.094;17.002;2024-01-06T04:13:16;1.60;99.90
324;DHT22;149;51.094;17.002;2024-01-06T04:15:43;1.60;99.90
324;DHT22;149;51.094;17.002;2024-01-06T04:18:11;1.70;99.90
324;DHT22;149;51.094;17.002;2024-01-06T04:20:38;1.60;99.90
324;DHT22;149;51.094;17.002;2024-01-06T04:23:05;1.60;99.90
324;DHT22;149;51.094;17.002;2024-01-06T04:25:32;1.70;99.90
324;DHT22;149;51.094;17.002;2024-01-06T04:27:59;1.70;99.90
324;DHT22;149;51.094;17.002;2024-01-06T04:30:26;1.60;99.90
324;DHT22;149;51.094;17.002;2024-01-06T04:32:54;1.60;99.90
324;DHT22;149;51.094;17.002;2024-01-06T04:35:21;1.60;99.90
324;DHT22;149;51.094;17.002;2024-01-06T04:37:50;1.60;99.90
324;DHT22;149;51.094;17.002;2024-01-06T04:40:18;1.60;99.90
324;DHT22;149;51.094;17.002;2024-01-06T04:42:44;1.50;99.90
324;DHT22;149;51.094;17.002;2024-01-06T04:45:12;1.50;99.90
324;DHT22;149;51.094;17.002;2024-01-06T04:47:39;1.60;99.90
324;DHT22;149;51.094;17.002;2024-01-06T04:50:06;1.50;99.90
324;DHT22;149;51.094;17.002;2024-01-06T04:52:35;1.50;99.90
324;DHT22;149;51.094;17.002;2024-01-06T04:55:01;1.50;99.90
324;DHT22;149;51.094;17.002;2024-01-06T04:57:28;1.50;99.90
324;DHT22;149;51.094;17.002;2024-01-06T04:59:57;1.40;99.90
324;DHT22;149;51.094;17.002;2024-01-06T05:02:24;1.40;99.90
324;DHT22;149;51.094;17.002;2024-01-06T05:04:50;1.40;99.90
324;DHT22;149;51.094;17.002;2024-01-06T05:07:18;1.40;99.90
324;DHT22;149;51.094;17.002;2024-01-06T05:09:45;1.40;99.90
324;DHT22;149;51.094;17.002;2024-01-06T05:12:13;1.40;99.90
324;DHT22;149;51.094;17.002;2024-01-06T05:14:43;1.50;99.90
324;DHT22;149;51.094;17.002;2024-01-06T05:17:13;1.60;99.90
324;DHT22;149;51.094;17.002;2024-01-06T05:19:40;1.60;99.90
324;DHT22;149;51.094;17.002;2024-01-06T05:22:10;1.50;99.90
324;DHT22;149;51.094;17.002;2024-01-06T05:24:40;1.50;99.90
324;DHT22;149;51.094;17.002;2024-01-06T05:27:10;1.70;99.90
324;DHT22;149;51.094;17.002;2024-01-06T05:29:39;1.50;99.90
324;DHT22;149;51.094;17.002;2024-01-06T05:32:08;1.50;99.90
324;DHT22;149;51.094;17.002;2024-01-06T05:34:38;1.50;99.90
324;DHT22;149;51.094;17.002;2024-01-06T05:37:05;1.50;99.90
324;DHT22;149;51.094;17.002;2024-01-06T05:39:37;1.40;99.90
324;DHT22;149;51.094;17.002;2024-01-06T05:42:10;1.40;99.90
324;DHT22;149;51.094;17.002;2024-01-06T05:44:45;1.40;99.90
324;DHT22;149;51.094;17.002;2024-01-06T05:47:13;1.50;99.90
324;DHT22;149;51.094;17.002;2024-01-06T05:49:43;1.50;99.90
324;DHT22;149;51.094;17.002;2024-01-06T05:52:16;1.50;99.90
324;DHT22;149;51.094;17.002;2024-01-06T05:54:45;1.50;99.90
324;DHT22;149;51.094;17.002;2024-01-06T05:57:19;1.50;99.90
324;DHT22;149;51.094;17.002;2024-01-06T05:59:46;1.40;99.90
324;DHT22;149;51.094;17.002;2024-01-06T06:02:13;1.40;99.90
324;DHT22;149;51.094;17.002;2024-01-06T06:04:41;1.40;99.90
324;DHT22;149;51.094;17.002;2024-01-06T06:07:08;1.40;99.90
324;DHT22;149;51.094;17.002;2024-01-06T06:09:37;1.50;99.90
324;DHT22;149;51.094;17.002;2024-01-06T06:12:06;1.40;99.90
324;DHT22;149;51.094;17.002;2024-01-06T06:14:36;1.40;99.90
324;DHT22;149;51.094;17.002;2024-01-06T06:17:07;1.40;99.90
324;DHT22;149;51.094;17.002;2024-01-06T06:19:34;1.40;99.90
324;DHT22;149;51.094;17.002;2024-01-06T06:22:02;1.30;99.90
324;DHT22;149;51.094;17.002;2024-01-06T06:24:28;1.30;99.90
324;DHT22;149;51.094;17.002;2024-01-06T06:26:56;1.30;99.90
324;DHT22;149;51.094;17.002;2024-01-06T06:29:23;1.30;99.90
324;DHT22;149;51.094;17.002;2024-01-06T06:31:52;1.30;99.90
324;DHT22;149;51.094;17.002;2024-01-06T06:34:19;1.30;99.90
324;DHT22;149;51.094;17.002;2024-01-06T06:36:47;1.30;99.90
324;DHT22;149;51.094;17.002;2024-01-06T06:39:13;1.20;99.90
324;DHT22;149;51.094;17.002;2024-01-06T06:41:41;1.30;99.90
324;DHT22;149;51.094;17.002;2024-01-06T06:44:08;1.30;99.90
324;DHT22;149;51.094;17.002;2024-01-06T06:46:35;1.30;99.90
324;DHT22;149;51.094;17.002;2024-01-06T06:49:02;1.30;99.90
324;DHT22;149;51.094;17.002;2024-01-06T06:51:32;1.30;99.90
324;DHT22;149;51.094;17.002;2024-01-06T06:54:00;1.30;99.90
324;DHT22;149;51.094;17.002;2024-01-06T06:56:29;1.20;99.90
324;DHT22;149;51.094;17.002;2024-01-06T06:58:57;1.30;99.90
324;DHT22;149;51.094;17.002;2024-01-06T07:01:23;1.30;99.90
324;DHT22;149;51.094;17.002;2024-01-06T07:03:51;1.30;99.90
324;DHT22;149;51.094;17.002;2024-01-06T07:06:18;1.30;99.90
324;DHT22;149;51.094;17.002;2024-01-06T07:08:45;1.30;99.90
324;DHT22;149;51.094;17.002;2024-01-06T07:11:12;1.30;99.90
324;DHT22;149;51.094;17.002;2024-01-06T07:13:42;1.30;99.90
324;DHT22;149;51.094;17.002;2024-01-06T07:16:09;1.20;99.90
324;DHT22;149;51.094;17.002;2024-01-06T07:18:45;1.20;99.90
324;DHT22;149;51.094;17.002;2024-01-06T07:21:13;1.10;99.90
324;DHT22;149;51.094;17.002;2024-01-06T07:23:40;1.20;99.90
324;DHT22;149;51.094;17.002;2024-01-06T07:26:08;1.20;99.90
324;DHT22;149;51.094;17.002;2024-01-06T07:28:35;1.20;99.90
324;DHT22;149;51.094;17.002;2024-01-06T07:31:02;1.20;99.90
324;DHT22;149;51.094;17.002;2024-01-06T07:33:32;1.30;99.90
324;DHT22;149;51.094;17.002;2024-01-06T07:35:59;1.20;99.90
324;DHT22;149;51.094;17.002;2024-01-06T07:38:30;1.20;99.90
324;DHT22;149;51.094;17.002;2024-01-06T07:40:58;1.30;99.90
324;DHT22;149;51.094;17.002;2024-01-06T07:43:28;1.20;99.90
324;DHT22;149;51.094;17.002;2024-01-06T07:45:56;1.20;99.90
324;DHT22;149;51.094;17.002;2024-01-06T07:48:25;1.20;99.90
324;DHT22;149;51.094;17.002;2024-01-06T07:50:53;1.20;99.90
324;DHT22;149;51.094;17.002;2024-01-06T07:53:21;1.30;99.90
324;DHT22;149;51.094;17.002;2024-01-06T07:55:48;1.30;99.90
324;DHT22;149;51.094;17.002;2024-01-06T07:58:26;1.30;99.90
324;DHT22;149;51.094;17.002;2024-01-06T08:00:54;1.40;99.90
324;DHT22;149;51.094;17.002;2024-01-06T08:03:21;1.40;99.90
324;DHT22;149;51.094;17.002;2024-01-06T08:05:49;1.50;99.90
324;DHT22;149;51.094;17.002;2024-01-06T08:08:18;1.50;99.90
324;DHT22;149;51.094;17.002;2024-01-06T08:10:47;1.40;99.90
324;DHT22;149;51.094;17.002;2024-01-06T08:13:16;1.50;99.90
324;DHT22;149;51.094;17.002;2024-01-06T08:15:45;1.50;99.90
324;DHT22;149;51.094;17.002;2024-01-06T08:18:12;1.50;99.90
324;DHT22;149;51.094;17.002;2024-01-06T08:20:39;1.40;99.90
324;DHT22;149;51.094;17.002;2024-01-06T08:23:06;1.50;99.90
324;DHT22;149;51.094;17.002;2024-01-06T08:25:33;1.50;99.90
324;DHT22;149;51.094;17.002;2024-01-06T08:28:00;1.60;99.90
324;DHT22;149;51.094;17.002;2024-01-06T08:30:30;1.60;99.90
324;DHT22;149;51.094;17.002;2024-01-06T08:32:58;1.60;99.90
324;DHT22;149;51.094;17.002;2024-01-06T08:35:27;1.60;99.90
324;DHT22;149;51.094;17.002;2024-01-06T08:37:54;1.60;99.90
324;DHT22;149;51.094;17.002;2024-01-06T08:40:23;1.60;99.90
324;DHT22;149;51.094;17.002;2024-01-06T08:42:51;1.50;99.90
324;DHT22;149;51.094;17.002;2024-01-06T08:45:18;1.50;99.90
324;DHT22;149;51.094;17.002;2024-01-06T08:47:47;1.40;99.90
324;DHT22;149;51.094;17.002;2024-01-06T08:50:13;1.40;99.90
324;DHT22;149;51.094;17.002;2024-01-06T08:52:40;1.50;99.90
324;DHT22;149;51.094;17.002;2024-01-06T08:55:08;1.40;99.90
324;DHT22;149;51.094;17.002;2024-01-06T08:57:36;1.40;99.90
324;DHT22;149;51.094;17.002;2024-01-06T09:00:06;1.50;99.90
324;DHT22;149;51.094;17.002;2024-01-06T09:02:35;1.50;99.90
324;DHT22;149;51.094;17.002;2024-01-06T09:05:02;1.40;99.90
324;DHT22;149;51.094;17.002;2024-01-06T09:07:29;1.40;99.90
324;DHT22;149;51.094;17.002;2024-01-06T09:09:56;1.50;99.90
324;DHT22;149;51.094;17.002;2024-01-06T09:12:24;1.40;99.90
324;DHT22;149;51.094;17.002;2024-01-06T09:14:51;1.30;99.90
324;DHT22;149;51.094;17.002;2024-01-06T09:17:18;1.30;99.90
324;DHT22;149;51.094;17.002;2024-01-06T09:19:52;1.40;99.90
324;DHT22;149;51.094;17.002;2024-01-06T09:22:23;1.40;99.90
324;DHT22;149;51.094;17.002;2024-01-06T09:24:51;1.30;99.90
324;DHT22;149;51.094;17.002;2024-01-06T09:27:19;1.40;99.90
324;DHT22;149;51.094;17.002;2024-01-06T09:29:47;1.30;99.90
324;DHT22;149;51.094;17.002;2024-01-06T09:32:13;1.40;99.90
324;DHT22;149;51.094;17.002;2024-01-06T09:34:40;1.50;99.90
324;DHT22;149;51.094;17.002;2024-01-06T09:37:08;1.60;99.90
324;DHT22;149;51.094;17.002;2024-01-06T09:39:34;1.50;99.90
324;DHT22;149;51.094;17.002;2024-01-06T09:42:04;1.30;99.90
324;DHT22;149;51.094;17.002;2024-01-06T09:44:32;1.20;99.90
324;DHT22;149;51.094;17.002;2024-01-06T09:47:01;1.20;99.90
324;DHT22;149;51.094;17.002;2024-01-06T09:49:33;1.20;99.90
324;DHT22;149;51.094;17.002;2024-01-06T09:52:03;1.20;99.90
324;DHT22;149;51.094;17.002;2024-01-06T09:54:34;1.10;99.90
324;DHT22;149;51.094;17.002;2024-01-06T09:57:04;1.10;99.90
324;DHT22;149;51.094;17.002;2024-01-06T09:59:33;1.20;99.90
324;DHT22;149;51.094;17.002;2024-01-06T10:02:04;1.10;99.90
324;DHT22;149;51.094;17.002;2024-01-06T10:04:32;1.00;99.90
324;DHT22;149;51.094;17.002;2024-01-06T10:06:59;1.10;99.90
324;DHT22;149;51.094;17.002;2024-01-06T10:09:27;1.10;99.90
324;DHT22;149;51.094;17.002;2024-01-06T10:11:56;1.10;99.90
324;DHT22;149;51.094;17.002;2024-01-06T10:14:29;1.00;99.90
324;DHT22;149;51.094;17.002;2024-01-06T10:16:56;1.00;99.90
324;DHT22;149;51.094;17.002;2024-01-06T10:19:24;1.00;99.90
324;DHT22;149;51.094;17.002;2024-01-06T10:21:52;1.10;99.90
324;DHT22;149;51.094;17.002;2024-01-06T10:24:19;1.00;99.90
324;DHT22;149;51.094;17.002;2024-01-06T10:26:48;0.90;99.90
324;DHT22;149;51.094;17.002;2024-01-06T10:29:15;1.00;99.90
324;DHT22;149;51.094;17.002;2024-01-06T10:31:42;0.90;99.90
324;DHT22;149;51.094;17.002;2024-01-06T10:34:11;1.00;99.90
324;DHT22;149;51.094;17.002;2024-01-06T10:36:38;1.00;99.90
324;DHT22;149;51.094;17.002;2024-01-06T10:39:05;0.90;99.90
324;DHT22;149;51.094;17.002;2024-01-06T10:41:34;1.00;99.90
324;DHT22;149;51.094;17.002;2024-01-06T10:44:06;1.00;99.90
324;DHT22;149;51.094;17.002;2024-01-06T10:46:33;1.00;99.90
324;DHT22;149;51.094;17.002;2024-01-06T10:49:02;1.00;99.90
324;DHT22;149;51.094;17.002;2024-01-06T10:51:32;1.10;99.90
324;DHT22;149;51.094;17.002;2024-01-06T10:54:01;0.90;99.90
324;DHT22;149;51.094;17.002;2024-01-06T10:56:29;0.80;99.90
324;DHT22;149;51.094;17.002;2024-01-06T10:58:58;0.80;99.90
324;DHT22;149;51.094;17.002;2024-01-06T11:01:27;0.90;99.90
324;DHT22;149;51.094;17.002;2024-01-06T11:03:56;0.90;99.90
324;DHT22;149;51.094;17.002;2024-01-06T11:06:24;0.90;99.90
324;DHT22;149;51.094;17.002;2024-01-06T11:09:13;1.00;99.90
324;DHT22;149;51.094;17.002;2024-01-06T11:11:42;1.10;99.90
324;DHT22;149;51.094;17.002;2024-01-06T11:14:27;1.10;99.90
324;DHT22;149;51.094;17.002;2024-01-06T11:16:55;1.10;99.90
324;DHT22;149;51.094;17.002;2024-01-06T11:22:29;1.20;99.90
324;DHT22;149;51.094;17.002;2024-01-06T11:25:19;1.10;99.90
324;DHT22;149;51.094;17.002;2024-01-06T11:27:48;1.10;99.90
324;DHT22;149;51.094;17.002;2024-01-06T11:30:24;1.10;99.90
324;DHT22;149;51.094;17.002;2024-01-06T11:32:53;1.10;99.90
324;DHT22;149;51.094;17.002;2024-01-06T11:35:21;1.00;99.90
324;DHT22;149;51.094;17.002;2024-01-06T11:37:52;1.00;99.90
324;DHT22;149;51.094;17.002;2024-01-06T11:43:09;1.00;99.90
324;DHT22;149;51.094;17.002;2024-01-06T11:45:38;0.90;99.90
324;DHT22;149;51.094;17.002;2024-01-06T11:48:08;0.90;99.90
324;DHT22;149;51.094;17.002;2024-01-06T11:50:38;0.90;99.90
324;DHT22;149;51.094;17.002;2024-01-06T11:53:07;0.90;99.90
324;DHT22;149;51.094;17.002;2024-01-06T11:55:39;0.90;99.90
324;DHT22;149;51.094;17.002;2024-01-06T11:58:06;0.90;99.90
324;DHT22;149;51.094;17.002;2024-01-06T12:00:33;1.00;99.90
324;DHT22;149;51.094;17.002;2024-01-06T12:03:03;0.90;99.90
324;DHT22;149;51.094;17.002;2024-01-06T12:05:30;0.90;99.90
324;DHT22;149;51.094;17.002;2024-01-06T12:08:01;0.90;99.90
324;DHT22;149;51.094;17.002;2024-01-06T12:10:29;0.80;99.90
324;DHT22;149;51.094;17.002;2024-01-06T12:13:05;0.80;99.90
324;DHT22;149;51.094;17.002;2024-01-06T12:15:32;0.90;99.90
324;DHT22;149;51.094;17.002;2024-01-06T12:18:04;0.90;99.90
324;DHT22;149;51.094;17.002;2024-01-06T12:20:33;0.80;99.90
324;DHT22;149;51.094;17.002;2024-01-06T12:23:00;0.90;99.90
324;DHT22;149;51.094;17.002;2024-01-06T12:25:28;0.90;99.90
324;DHT22;149;51.094;17.002;2024-01-06T12:28:06;0.90;99.90
324;DHT22;149;51.094;17.002;2024-01-06T12:30:38;0.90;99.90
324;DHT22;149;51.094;17.002;2024-01-06T12:33:05;0.90;99.90
324;DHT22;149;51.094;17.002;2024-01-06T12:35:34;0.90;99.90
324;DHT22;149;51.094;17.002;2024-01-06T12:38:04;0.90;99.90
324;DHT22;149;51.094;17.002;2024-01-06T12:40:36;0.90;99.90
324;DHT22;149;51.094;17.002;2024-01-06T12:43:05;0.90;99.90
324;DHT22;149;51.094;17.002;2024-01-06T12:45:34;0.90;99.90
324;DHT22;149;51.094;17.002;2024-01-06T12:48:01;0.90;99.90
324;DHT22;149;51.094;17.002;2024-01-06T12:50:29;1.00;99.90
324;DHT22;149;51.094;17.002;2024-01-06T12:52:56;1.00;99.90
324;DHT22;149;51.094;17.002;2024-01-06T12:55:22;0.90;99.90
324;DHT22;149;51.094;17.002;2024-01-06T12:57:51;0.90;99.90
324;DHT22;149;51.094;17.002;2024-01-06T13:00:19;0.90;99.90
324;DHT22;149;51.094;17.002;2024-01-06T13:02:46;0.90;99.90
324;DHT22;149;51.094;17.002;2024-01-06T13:05:14;0.90;99.90
324;DHT22;149;51.094;17.002;2024-01-06T13:07:41;0.80;99.90
324;DHT22;149;51.094;17.002;2024-01-06T13:10:09;0.80;99.90
324;DHT22;149;51.094;17.002;2024-01-06T13:12:40;0.80;99.90
324;DHT22;149;51.094;17.002;2024-01-06T13:15:08;0.90;99.90
324;DHT22;149;51.094;17.002;2024-01-06T13:17:41;0.80;99.90
324;DHT22;149;51.094;17.002;2024-01-06T13:20:09;0.70;99.90
324;DHT22;149;51.094;17.002;2024-01-06T13:22:37;0.80;99.90
324;DHT22;149;51.094;17.002;2024-01-06T13:25:07;0.80;99.90
324;DHT22;149;51.094;17.002;2024-01-06T13:27:36;0.90;99.90
324;DHT22;149;51.094;17.002;2024-01-06T13:30:05;0.80;99.90
324;DHT22;149;51.094;17.002;2024-01-06T13:32:32;0.70;99.90
324;DHT22;149;51.094;17.002;2024-01-06T13:34:59;0.80;99.90
324;DHT22;149;51.094;17.002;2024-01-06T13:37:32;0.70;99.90
324;DHT22;149;51.094;17.002;2024-01-06T13:39:59;0.80;99.90
324;DHT22;149;51.094;17.002;2024-01-06T13:42:26;0.80;99.90
324;DHT22;149;51.094;17.002;2024-01-06T13:44:58;0.70;99.90
324;DHT22;149;51.094;17.002;2024-01-06T13:47:27;0.60;99.90
324;DHT22;149;51.094;17.002;2024-01-06T13:49:54;0.50;99.90
324;DHT22;149;51.094;17.002;2024-01-06T13:52:26;0.60;99.90
324;DHT22;149;51.094;17.002;2024-01-06T13:54:55;0.60;99.90
324;DHT22;149;51.094;17.002;2024-01-06T13:57:26;0.60;99.90
324;DHT22;149;51.094;17.002;2024-01-06T13:59:55;0.70;99.90
324;DHT22;149;51.094;17.002;2024-01-06T14:02:24;0.70;99.90
324;DHT22;149;51.094;17.002;2024-01-06T14:04:52;0.70;99.90
324;DHT22;149;51.094;17.002;2024-01-06T14:07:21;0.70;99.90
324;DHT22;149;51.094;17.002;2024-01-06T14:09:52;0.50;99.90
324;DHT22;149;51.094;17.002;2024-01-06T14:12:21;0.60;99.90
324;DHT22;149;51.094;17.002;2024-01-06T14:14:49;0.50;99.90
324;DHT22;149;51.094;17.002;2024-01-06T14:17:17;0.50;99.90
324;DHT22;149;51.094;17.002;2024-01-06T14:19:45;0.50;99.90
324;DHT22;149;51.094;17.002;2024-01-06T14:22:14;0.40;99.90
324;DHT22;149;51.094;17.002;2024-01-06T14:24:43;0.50;99.90
324;DHT22;149;51.094;17.002;2024-01-06T14:27:10;0.50;99.90
324;DHT22;149;51.094;17.002;2024-01-06T14:29:37;0.50;99.90
324;DHT22;149;51.094;17.002;2024-01-06T14:32:06;0.50;99.90
324;DHT22;149;51.094;17.002;2024-01-06T14:34:35;0.50;99.90
324;DHT22;149;51.094;17.002;2024-01-06T14:37:04;0.40;99.90
324;DHT22;149;51.094;17.002;2024-01-06T14:39:32;0.40;99.90
324;DHT22;149;51.094;17.002;2024-01-06T14:41:59;0.40;99.90
324;DHT22;149;51.094;17.002;2024-01-06T14:44:26;0.30;99.90
324;DHT22;149;51.094;17.002;2024-01-06T14:46:56;0.40;99.90
324;DHT22;149;51.094;17.002;2024-01-06T14:49:27;0.40;99.90
324;DHT22;149;51.094;17.002;2024-01-06T14:51:55;0.40;99.90
324;DHT22;149;51.094;17.002;2024-01-06T14:54:26;0.30;99.90
324;DHT22;149;51.094;17.002;2024-01-06T14:56:58;0.40;99.90
324;DHT22;149;51.094;17.002;2024-01-06T14:59:25;0.30;99.90
324;DHT22;149;51.094;17.002;2024-01-06T15:01:56;0.20;99.90
324;DHT22;149;51.094;17.002;2024-01-06T15:04:25;0.20;99.90
324;DHT22;149;51.094;17.002;2024-01-06T15:06:56;0.20;99.90
324;DHT22;149;51.094;17.002;2024-01-06T15:09:24;0.20;99.90
324;DHT22;149;51.094;17.002;2024-01-06T15:11:58;0.20;99.90
324;DHT22;149;51.094;17.002;2024-01-06T15:14:25;0.20;99.90
324;DHT22;149;51.094;17.002;2024-01-06T15:16:52;0.10;99.90
324;DHT22;149;51.094;17.002;2024-01-06T15:19:19;0.00;99.90
324;DHT22;149;51.094;17.002;2024-01-06T15:21:52;0.10;99.90
324;DHT22;149;51.094;17.002;2024-01-06T15:24:19;0.10;99.90
324;DHT22;149;51.094;17.002;2024-01-06T15:26:46;0.20;99.90
324;DHT22;149;51.094;17.002;2024-01-06T15:29:12;0.10;99.90
324;DHT22;149;51.094;17.002;2024-01-06T15:31:42;0.10;99.90
324;DHT22;149;51.094;17.002;2024-01-06T15:34:18;0.00;99.90
324;DHT22;149;51.094;17.002;2024-01-06T15:36:50;0.00;99.90
324;DHT22;149;51.094;17.002;2024-01-06T15:39:25;0.00;99.90
324;DHT22;149;51.094;17.002;2024-01-06T15:41:53;-0.10;99.90
324;DHT22;149;51.094;17.002;2024-01-06T15:44:20;0.00;99.90
324;DHT22;149;51.094;17.002;2024-01-06T15:46:47;0.00;99.90
324;DHT22;149;51.094;17.002;2024-01-06T15:49:14;0.00;99.90
324;DHT22;149;51.094;17.002;2024-01-06T15:51:41;0.00;99.90
324;DHT22;149;51.094;17.002;2024-01-06T15:54:09;0.00;99.90
324;DHT22;149;51.094;17.002;2024-01-06T15:56:37;0.00;99.90
324;DHT22;149;51.094;17.002;2024-01-06T15:59:04;-0.10;99.90
324;DHT22;149;51.094;17.002;2024-01-06T16:01:32;-0.20;99.90
324;DHT22;149;51.094;17.002;2024-01-06T16:04:01;-0.20;99.90
324;DHT22;149;51.094;17.002;2024-01-06T16:06:29;-0.10;99.90
324;DHT22;149;51.094;17.002;2024-01-06T16:09:02;-0.10;99.90
324;DHT22;149;51.094;17.002;2024-01-06T16:11:32;0.10;99.90
324;DHT22;149;51.094;17.002;2024-01-06T16:14:00;-0.10;99.90
324;DHT22;149;51.094;17.002;2024-01-06T16:16:28;-0.10;99.90
324;DHT22;149;51.094;17.002;2024-01-06T16:18:55;-0.10;99.90
324;DHT22;149;51.094;17.002;2024-01-06T16:21:23;-0.10;99.90
324;DHT22;149;51.094;17.002;2024-01-06T16:23:51;-0.10;99.90
324;DHT22;149;51.094;17.002;2024-01-06T16:26:18;-0.10;99.90
324;DHT22;149;51.094;17.002;2024-01-06T16:28:46;-0.10;99.90
324;DHT22;149;51.094;17.002;2024-01-06T16:31:13;-0.20;99.90
324;DHT22;149;51.094;17.002;2024-01-06T16:33:40;-0.20;99.90
324;DHT22;149;51.094;17.002;2024-01-06T16:36:09;-0.20;99.90
324;DHT22;149;51.094;17.002;2024-01-06T16:38:37;-0.20;99.90
324;DHT22;149;51.094;17.002;2024-01-06T16:41:04;-0.20;99.90
324;DHT22;149;51.094;17.002;2024-01-06T16:43:32;-0.20;99.90
324;DHT22;149;51.094;17.002;2024-01-06T16:46:05;-0.10;99.90
324;DHT22;149;51.094;17.002;2024-01-06T16:48:36;0.00;99.90